createdAt,value
2017-11-19T00:00:04.863Z,0
2017-11-19T00:01:13.704Z,0
2017-11-19T00:02:22.546Z,0
2017-11-19T00:03:31.382Z,0
2017-11-19T00:04:40.217Z,0
2017-11-19T00:05:49.043Z,0
2017-11-19T00:06:57.876Z,0
2017-11-19T00:08:06.912Z,0
2017-11-19T00:09:16.027Z,0
2017-11-19T00:10:25.142Z,0
2017-11-19T00:11:33.970Z,0
2017-11-19T00:12:42.807Z,0
2017-11-19T00:13:51.641Z,0
2017-11-19T00:15:00.475Z,0
2017-11-19T00:16:09.302Z,0
2017-11-19T00:17:18.126Z,0
2017-11-19T00:18:26.952Z,0
2017-11-19T00:19:36.257Z,0
2017-11-19T00:20:45.082Z,0
2017-11-19T00:21:53.910Z,0
2017-11-19T00:23:02.731Z,0
2017-11-19T00:24:11.556Z,0
2017-11-19T00:25:20.709Z,0
2017-11-19T00:26:29.533Z,0
2017-11-19T00:27:38.359Z,0
2017-11-19T00:28:47.182Z,0
2017-11-19T00:29:56.009Z,0
2017-11-19T00:31:04.890Z,0
2017-11-19T00:32:13.707Z,0
2017-11-19T00:33:22.537Z,0
2017-11-19T00:34:31.356Z,0
2017-11-19T00:35:40.278Z,0
2017-11-19T00:36:49.102Z,0
2017-11-19T00:37:57.931Z,0
2017-11-19T00:39:07.036Z,0
2017-11-19T00:40:15.858Z,0
2017-11-19T00:41:24.980Z,0
2017-11-19T00:42:33.804Z,0
2017-11-19T00:43:42.647Z,0
2017-11-19T00:44:51.451Z,0
2017-11-19T00:46:00.277Z,0
2017-11-19T00:47:09.101Z,0
2017-11-19T00:48:18.472Z,0
2017-11-19T00:49:27.570Z,0
2017-11-19T00:50:36.396Z,0
2017-11-19T00:51:45.221Z,0
2017-11-19T00:52:54.055Z,0
2017-11-19T00:54:03.037Z,0
2017-11-19T00:55:11.869Z,0
2017-11-19T00:56:20.973Z,0
2017-11-19T00:57:29.800Z,0
2017-11-19T00:58:38.623Z,0
2017-11-19T00:59:47.500Z,0
2017-11-19T01:00:56.324Z,0
2017-11-19T01:02:05.147Z,0
2017-11-19T01:03:13.973Z,0
2017-11-19T01:04:23.081Z,0
2017-11-19T01:05:31.910Z,0
2017-11-19T01:06:41.020Z,0
2017-11-19T01:07:50.124Z,0
2017-11-19T01:08:59.228Z,0
2017-11-19T01:10:08.332Z,0
2017-11-19T01:11:17.256Z,0
2017-11-19T01:12:26.083Z,0
2017-11-19T01:13:34.907Z,0
2017-11-19T01:14:43.729Z,0
2017-11-19T01:15:52.551Z,0
2017-11-19T01:17:01.427Z,0
2017-11-19T01:18:10.531Z,0
2017-11-19T01:19:19.355Z,0
2017-11-19T01:20:28.457Z,0
2017-11-19T01:21:37.282Z,0
2017-11-19T01:22:46.108Z,0
2017-11-19T01:23:54.937Z,0
2017-11-19T01:25:03.758Z,0
2017-11-19T01:26:12.581Z,0
2017-11-19T01:27:21.408Z,0
2017-11-19T01:28:30.339Z,0
2017-11-19T01:29:39.159Z,0
2017-11-19T01:30:47.986Z,0
2017-11-19T01:31:56.808Z,0
2017-11-19T01:33:05.635Z,0
2017-11-19T01:34:14.461Z,0
2017-11-19T01:35:23.287Z,0
2017-11-19T01:36:32.113Z,0
2017-11-19T01:37:40.940Z,0
2017-11-19T01:38:49.765Z,0
2017-11-19T01:39:58.692Z,0
2017-11-19T01:41:07.809Z,0
2017-11-19T01:42:16.639Z,0
2017-11-19T01:43:26.029Z,0
2017-11-19T01:44:34.852Z,0
2017-11-19T01:45:43.980Z,0
2017-11-19T01:46:52.804Z,0
2017-11-19T01:48:01.630Z,0
2017-11-19T01:49:10.456Z,0
2017-11-19T01:50:19.283Z,0
2017-11-19T01:51:28.388Z,0
2017-11-19T01:52:37.494Z,0
2017-11-19T01:53:46.318Z,0
2017-11-19T01:54:55.141Z,0
2017-11-19T01:56:03.965Z,0
2017-11-19T01:57:13.090Z,0
2017-11-19T01:58:21.919Z,0
2017-11-19T01:59:31.022Z,0
2017-11-19T02:00:39.847Z,0
2017-11-19T02:01:48.670Z,0
2017-11-19T02:02:57.784Z,0
2017-11-19T02:04:06.609Z,0
2017-11-19T02:05:15.720Z,0
2017-11-19T02:06:24.548Z,0
2017-11-19T02:07:33.391Z,0
2017-11-19T02:08:42.357Z,0
2017-11-19T02:09:51.464Z,0
2017-11-19T02:11:00.284Z,0
2017-11-19T02:12:09.111Z,0
2017-11-19T02:13:18.214Z,0
2017-11-19T02:14:27.187Z,0
2017-11-19T02:15:36.013Z,0
2017-11-19T02:16:44.840Z,0
2017-11-19T02:17:53.668Z,0
2017-11-19T02:19:02.493Z,0
2017-11-19T02:20:11.319Z,0
2017-11-19T02:21:20.147Z,0
2017-11-19T02:22:28.971Z,0
2017-11-19T02:23:38.076Z,0
2017-11-19T02:24:46.903Z,0
2017-11-19T02:25:55.778Z,0
2017-11-19T02:27:04.601Z,0
2017-11-19T02:28:13.426Z,0
2017-11-19T02:29:22.252Z,0
2017-11-19T02:30:31.078Z,0
2017-11-19T02:31:40.335Z,0
2017-11-19T02:32:49.160Z,0
2017-11-19T02:33:57.991Z,0
2017-11-19T02:35:06.813Z,0
2017-11-19T02:36:15.638Z,0
2017-11-19T02:37:24.768Z,0
2017-11-19T02:38:34.157Z,0
2017-11-19T02:39:42.981Z,0
2017-11-19T02:40:51.806Z,0
2017-11-19T02:42:00.632Z,0
2017-11-19T02:43:09.456Z,0
2017-11-19T02:44:18.574Z,0
2017-11-19T02:45:27.396Z,0
2017-11-19T02:46:36.223Z,0
2017-11-19T02:47:45.048Z,0
2017-11-19T02:48:54.181Z,0
2017-11-19T02:50:03.007Z,0
2017-11-19T02:51:11.828Z,0
2017-11-19T02:52:20.938Z,0
2017-11-19T02:53:29.769Z,0
2017-11-19T02:54:38.689Z,0
2017-11-19T02:55:47.513Z,0
2017-11-19T02:56:56.340Z,0
2017-11-19T02:58:05.168Z,0
2017-11-19T02:59:13.993Z,0
2017-11-19T03:00:23.117Z,0
2017-11-19T03:01:32.235Z,0
2017-11-19T03:02:41.059Z,0
2017-11-19T03:03:49.884Z,0
2017-11-19T03:04:58.710Z,0
2017-11-19T03:06:07.696Z,0
2017-11-19T03:07:16.513Z,0
2017-11-19T03:08:25.334Z,0
2017-11-19T03:09:34.159Z,0
2017-11-19T03:10:42.983Z,0
2017-11-19T03:11:52.208Z,0
2017-11-19T03:13:01.036Z,0
2017-11-19T03:14:09.861Z,0
2017-11-19T03:15:18.691Z,0
2017-11-19T03:16:27.530Z,0
2017-11-19T03:17:36.343Z,0
2017-11-19T03:18:45.166Z,0
2017-11-19T03:19:54.039Z,0
2017-11-19T03:21:02.862Z,0
2017-11-19T03:22:11.688Z,0
2017-11-19T03:23:20.565Z,0
2017-11-19T03:24:29.666Z,0
2017-11-19T03:25:38.492Z,0
2017-11-19T03:26:47.321Z,0
2017-11-19T03:27:56.140Z,0
2017-11-19T03:29:05.265Z,0
2017-11-19T03:30:14.104Z,0
2017-11-19T03:31:22.934Z,0
2017-11-19T03:32:31.755Z,0
2017-11-19T03:33:40.581Z,0
2017-11-19T03:34:49.404Z,0
2017-11-19T03:35:58.508Z,0
2017-11-19T03:37:07.339Z,0
2017-11-19T03:38:16.161Z,0
2017-11-19T03:39:24.987Z,0
2017-11-19T03:40:33.860Z,0
2017-11-19T03:41:42.684Z,0
2017-11-19T03:42:51.507Z,0
2017-11-19T03:44:00.333Z,0
2017-11-19T03:45:09.437Z,0
2017-11-19T03:46:18.663Z,0
2017-11-19T03:47:27.767Z,0
2017-11-19T03:48:36.593Z,0
2017-11-19T03:49:45.418Z,0
2017-11-19T03:50:54.241Z,0
2017-11-19T03:52:03.074Z,0
2017-11-19T03:53:11.896Z,0
2017-11-19T03:54:20.728Z,0
2017-11-19T03:55:29.545Z,0
2017-11-19T03:56:38.373Z,0
2017-11-19T03:57:47.196Z,0
2017-11-19T03:58:56.022Z,0
2017-11-19T04:00:04.846Z,0
2017-11-19T04:01:13.677Z,0
2017-11-19T04:02:22.499Z,0
2017-11-19T04:03:31.626Z,0
2017-11-19T04:04:40.447Z,0
2017-11-19T04:05:49.273Z,0
2017-11-19T04:06:58.097Z,0
2017-11-19T04:08:06.921Z,0
2017-11-19T04:09:16.099Z,0
2017-11-19T04:10:25.210Z,0
2017-11-19T04:11:34.314Z,0
2017-11-19T04:12:43.427Z,0
2017-11-19T04:13:52.535Z,0
2017-11-19T04:15:01.411Z,0
2017-11-19T04:16:10.235Z,0
2017-11-19T04:17:19.337Z,0
2017-11-19T04:18:28.164Z,0
2017-11-19T04:19:37.000Z,0
2017-11-19T04:20:46.156Z,0
2017-11-19T04:21:54.985Z,0
2017-11-19T04:23:03.804Z,0
2017-11-19T04:24:12.632Z,0
2017-11-19T04:25:21.457Z,0
2017-11-19T04:26:30.382Z,0
2017-11-19T04:27:39.206Z,0
2017-11-19T04:28:48.030Z,0
2017-11-19T04:29:56.887Z,0
2017-11-19T04:31:05.963Z,0
2017-11-19T04:32:15.071Z,0
2017-11-19T04:33:23.888Z,0
2017-11-19T04:34:32.718Z,0
2017-11-19T04:35:41.540Z,0
2017-11-19T04:36:50.363Z,0
2017-11-19T04:37:59.489Z,0
2017-11-19T04:39:08.313Z,0
2017-11-19T04:40:17.139Z,0
2017-11-19T04:41:25.962Z,0
2017-11-19T04:42:34.796Z,0
2017-11-19T04:43:43.762Z,0
2017-11-19T04:44:52.590Z,0
2017-11-19T04:46:01.410Z,0
2017-11-19T04:47:10.236Z,0
2017-11-19T04:48:19.060Z,0
2017-11-19T04:49:28.472Z,0
2017-11-19T04:50:37.304Z,0
2017-11-19T04:51:46.127Z,0
2017-11-19T04:52:54.953Z,0
2017-11-19T04:54:03.778Z,0
2017-11-19T04:55:12.602Z,0
2017-11-19T04:56:21.429Z,0
2017-11-19T04:57:30.252Z,0
2017-11-19T04:58:39.079Z,0
2017-11-19T04:59:47.907Z,0
2017-11-19T05:00:56.936Z,0
2017-11-19T05:02:05.753Z,0
2017-11-19T05:03:14.579Z,0
2017-11-19T05:04:23.403Z,0
2017-11-19T05:05:32.507Z,0
2017-11-19T05:06:41.335Z,0
2017-11-19T05:07:50.155Z,0
2017-11-19T05:08:58.984Z,0
2017-11-19T05:10:07.807Z,0
2017-11-19T05:11:16.634Z,0
2017-11-19T05:12:25.456Z,0
2017-11-19T05:13:34.282Z,0
2017-11-19T05:14:43.108Z,0
2017-11-19T05:15:51.933Z,0
2017-11-19T05:17:01.047Z,0
2017-11-19T05:18:10.109Z,0
2017-11-19T05:19:18.934Z,0
2017-11-19T05:20:27.755Z,0
2017-11-19T05:21:36.583Z,0
2017-11-19T05:22:45.408Z,0
2017-11-19T05:23:54.512Z,0
2017-11-19T05:25:03.337Z,0
2017-11-19T05:26:12.165Z,0
2017-11-19T05:27:20.988Z,0
2017-11-19T05:28:29.812Z,0
2017-11-19T05:29:38.685Z,0
2017-11-19T05:30:47.508Z,0
2017-11-19T05:31:56.335Z,0
2017-11-19T05:33:05.439Z,0
2017-11-19T05:34:14.549Z,0
2017-11-19T05:35:23.675Z,0
2017-11-19T05:36:32.502Z,0
2017-11-19T05:37:41.325Z,0
2017-11-19T05:38:50.152Z,0
2017-11-19T05:39:58.975Z,0
2017-11-19T05:41:07.953Z,0
2017-11-19T05:42:16.776Z,0
2017-11-19T05:43:25.598Z,0
2017-11-19T05:44:34.425Z,0
2017-11-19T05:45:43.249Z,0
2017-11-19T05:46:52.074Z,0
2017-11-19T05:48:00.904Z,0
2017-11-19T05:49:09.725Z,0
2017-11-19T05:50:18.550Z,0
2017-11-19T05:51:27.375Z,0
2017-11-19T05:52:36.249Z,0
2017-11-19T05:53:45.076Z,0
2017-11-19T05:54:53.900Z,0
2017-11-19T05:56:02.726Z,0
2017-11-19T05:57:11.551Z,0
2017-11-19T05:58:20.524Z,0
2017-11-19T05:59:29.347Z,0
2017-11-19T06:00:38.176Z,0
2017-11-19T06:01:47.019Z,0
2017-11-19T06:02:55.823Z,0
2017-11-19T06:04:04.848Z,0
2017-11-19T06:05:13.673Z,0
2017-11-19T06:06:22.794Z,0
2017-11-19T06:07:31.606Z,0
2017-11-19T06:08:40.434Z,0
2017-11-19T06:09:49.360Z,0
2017-11-19T06:10:58.187Z,0
2017-11-19T06:12:07.021Z,0
2017-11-19T06:13:15.839Z,0
2017-11-19T06:14:24.665Z,0
2017-11-19T06:15:33.492Z,0
2017-11-19T06:16:42.316Z,0
2017-11-19T06:17:51.142Z,0
2017-11-19T06:18:59.970Z,0
2017-11-19T06:20:08.792Z,4
2017-11-19T06:21:17.619Z,0
2017-11-19T06:22:26.757Z,0
2017-11-19T06:23:35.583Z,0
2017-11-19T06:24:44.694Z,0
2017-11-19T06:25:53.519Z,0
2017-11-19T06:27:02.346Z,0
2017-11-19T06:28:11.168Z,0
2017-11-19T06:29:20.285Z,0
2017-11-19T06:30:29.110Z,4
2017-11-19T06:31:37.936Z,4
2017-11-19T06:32:46.962Z,4
2017-11-19T06:33:55.789Z,4
2017-11-19T06:35:04.613Z,8
2017-11-19T06:36:13.715Z,8
2017-11-19T06:37:22.542Z,8
2017-11-19T06:38:31.763Z,8
2017-11-19T06:39:40.588Z,12
2017-11-19T06:40:49.414Z,16
2017-11-19T06:41:58.237Z,20
2017-11-19T06:43:07.065Z,20
2017-11-19T06:44:16.040Z,24
2017-11-19T06:45:24.863Z,28
2017-11-19T06:46:33.694Z,36
2017-11-19T06:47:42.517Z,36
2017-11-19T06:48:51.342Z,24
2017-11-19T06:50:00.320Z,44
2017-11-19T06:51:09.156Z,52
2017-11-19T06:52:17.979Z,56
2017-11-19T06:53:26.803Z,52
2017-11-19T06:54:35.627Z,64
2017-11-19T06:55:44.462Z,84
2017-11-19T06:56:53.286Z,80
2017-11-19T06:58:02.113Z,52
2017-11-19T06:59:11.219Z,32
2017-11-19T07:00:20.054Z,24
2017-11-19T07:01:28.976Z,20
2017-11-19T07:02:37.801Z,32
2017-11-19T07:03:46.631Z,48
2017-11-19T07:04:55.457Z,44
2017-11-19T07:06:04.281Z,60
2017-11-19T07:07:13.108Z,60
2017-11-19T07:08:22.236Z,92
2017-11-19T07:09:31.070Z,128
2017-11-19T07:10:39.899Z,132
2017-11-19T07:11:48.724Z,116
2017-11-19T07:12:57.599Z,144
2017-11-19T07:14:06.424Z,172
2017-11-19T07:15:15.249Z,208
2017-11-19T07:16:24.074Z,228
2017-11-19T07:17:32.898Z,228
2017-11-19T07:18:41.879Z,244
2017-11-19T07:19:50.700Z,300
2017-11-19T07:20:59.524Z,416
2017-11-19T07:22:08.349Z,368
2017-11-19T07:23:17.173Z,328
2017-11-19T07:24:26.001Z,392
2017-11-19T07:25:35.108Z,240
2017-11-19T07:26:43.940Z,208
2017-11-19T07:27:52.766Z,224
2017-11-19T07:29:01.595Z,232
2017-11-19T07:30:10.571Z,344
2017-11-19T07:31:19.397Z,368
2017-11-19T07:32:28.504Z,384
2017-11-19T07:33:37.333Z,400
2017-11-19T07:34:46.160Z,408
2017-11-19T07:35:55.376Z,388
2017-11-19T07:37:04.160Z,408
2017-11-19T07:38:12.986Z,456
2017-11-19T07:39:21.815Z,444
2017-11-19T07:40:30.922Z,468
2017-11-19T07:41:40.180Z,504
2017-11-19T07:42:49.313Z,584
2017-11-19T07:43:58.420Z,704
2017-11-19T07:45:07.534Z,1064
2017-11-19T07:46:16.360Z,956
2017-11-19T07:47:25.344Z,916
2017-11-19T07:48:34.167Z,540
2017-11-19T07:49:42.992Z,492
2017-11-19T07:50:51.817Z,492
2017-11-19T07:52:00.643Z,800
2017-11-19T07:53:09.619Z,668
2017-11-19T07:54:18.448Z,640
2017-11-19T07:55:27.555Z,512
2017-11-19T07:56:36.666Z,484
2017-11-19T07:57:45.483Z,464
2017-11-19T07:58:54.459Z,480
2017-11-19T08:00:03.291Z,460
2017-11-19T08:01:12.110Z,440
2017-11-19T08:02:21.222Z,348
2017-11-19T08:03:30.048Z,276
2017-11-19T08:04:38.873Z,356
2017-11-19T08:05:47.697Z,384
2017-11-19T08:06:56.524Z,452
2017-11-19T08:08:05.352Z,484
2017-11-19T08:09:14.177Z,440
2017-11-19T08:10:23.155Z,656
2017-11-19T08:11:31.982Z,492
2017-11-19T08:12:41.110Z,372
2017-11-19T08:13:49.940Z,416
2017-11-19T08:14:58.764Z,368
2017-11-19T08:16:07.742Z,312
2017-11-19T08:17:16.853Z,300
2017-11-19T08:18:25.706Z,388
2017-11-19T08:19:34.550Z,532
2017-11-19T08:20:43.376Z,692
2017-11-19T08:21:52.308Z,788
2017-11-19T08:23:01.133Z,584
2017-11-19T08:24:09.959Z,572
2017-11-19T08:25:19.068Z,700
2017-11-19T08:26:27.900Z,740
2017-11-19T08:27:36.724Z,748
2017-11-19T08:28:45.549Z,740
2017-11-19T08:29:54.375Z,840
2017-11-19T08:31:03.202Z,1180
2017-11-19T08:32:12.033Z,1280
2017-11-19T08:33:21.135Z,1468
2017-11-19T08:34:29.962Z,2448
2017-11-19T08:35:38.835Z,3268
2017-11-19T08:36:47.661Z,4224
2017-11-19T08:37:56.492Z,4864
2017-11-19T08:39:05.366Z,4740
2017-11-19T08:40:14.192Z,4692
2017-11-19T08:41:23.020Z,3384
2017-11-19T08:42:31.847Z,2364
2017-11-19T08:43:40.675Z,1620
2017-11-19T08:44:49.602Z,1132
2017-11-19T08:45:58.450Z,828
2017-11-19T08:47:07.557Z,612
2017-11-19T08:48:16.388Z,560
2017-11-19T08:49:25.215Z,1164
2017-11-19T08:50:34.143Z,1472
2017-11-19T08:51:43.251Z,1492
2017-11-19T08:52:52.080Z,1604
2017-11-19T08:54:00.906Z,1688
2017-11-19T08:55:09.731Z,1856
2017-11-19T08:56:18.711Z,2064
2017-11-19T08:57:27.537Z,1996
2017-11-19T08:58:36.366Z,1904
2017-11-19T08:59:45.190Z,1856
2017-11-19T09:00:54.020Z,1852
2017-11-19T09:02:03.095Z,1968
2017-11-19T09:03:11.923Z,2308
2017-11-19T09:04:20.750Z,2132
2017-11-19T09:05:29.579Z,1916
2017-11-19T09:06:38.407Z,1888
2017-11-19T09:07:47.235Z,1752
2017-11-19T09:08:56.063Z,1576
2017-11-19T09:10:04.889Z,1356
2017-11-19T09:11:13.716Z,996
2017-11-19T09:12:22.543Z,908
2017-11-19T09:13:31.523Z,956
2017-11-19T09:14:40.347Z,704
2017-11-19T09:15:49.174Z,896
2017-11-19T09:16:58.002Z,964
2017-11-19T09:18:06.826Z,1036
2017-11-19T09:19:15.802Z,1032
2017-11-19T09:20:24.628Z,984
2017-11-19T09:21:33.456Z,1044
2017-11-19T09:22:42.282Z,1064
2017-11-19T09:23:51.391Z,1128
2017-11-19T09:25:00.277Z,1224
2017-11-19T09:26:09.096Z,1304
2017-11-19T09:27:17.924Z,1384
2017-11-19T09:28:27.032Z,1408
2017-11-19T09:29:35.861Z,1512
2017-11-19T09:30:45.066Z,1824
2017-11-19T09:31:53.896Z,2900
2017-11-19T09:33:02.725Z,4700
2017-11-19T09:34:11.563Z,6628
2017-11-19T09:35:20.393Z,4068
2017-11-19T09:36:29.319Z,3376
2017-11-19T09:37:38.149Z,2076
2017-11-19T09:38:46.977Z,1488
2017-11-19T09:39:55.804Z,1100
2017-11-19T09:41:04.631Z,1188
2017-11-19T09:42:13.613Z,1532
2017-11-19T09:43:22.448Z,2072
2017-11-19T09:44:31.269Z,1756
2017-11-19T09:45:40.097Z,1392
2017-11-19T09:46:48.928Z,1228
2017-11-19T09:47:57.804Z,1212
2017-11-19T09:49:06.916Z,1280
2017-11-19T09:50:15.748Z,1340
2017-11-19T09:51:24.575Z,1416
2017-11-19T09:52:33.404Z,1472
2017-11-19T09:53:42.284Z,1536
2017-11-19T09:54:51.111Z,1684
2017-11-19T09:55:59.945Z,2168
2017-11-19T09:57:08.768Z,3632
2017-11-19T09:58:17.599Z,7080
2017-11-19T09:59:26.576Z,3700
2017-11-19T10:00:35.404Z,2176
2017-11-19T10:01:44.513Z,1732
2017-11-19T10:02:53.337Z,1508
2017-11-19T10:04:02.169Z,1320
2017-11-19T10:05:11.396Z,1492
2017-11-19T10:06:20.501Z,1712
2017-11-19T10:07:29.331Z,1864
2017-11-19T10:08:38.444Z,2068
2017-11-19T10:09:47.274Z,2732
2017-11-19T10:10:56.730Z,3856
2017-11-19T10:12:05.560Z,5216
2017-11-19T10:13:14.386Z,5328
2017-11-19T10:14:23.215Z,4992
2017-11-19T10:15:32.324Z,3840
2017-11-19T10:16:41.357Z,3920
2017-11-19T10:17:50.187Z,3256
2017-11-19T10:18:59.292Z,1704
2017-11-19T10:20:08.121Z,800
2017-11-19T10:21:16.951Z,548
2017-11-19T10:22:25.793Z,604
2017-11-19T10:23:34.632Z,944
2017-11-19T10:24:43.473Z,1368
2017-11-19T10:25:52.301Z,1856
2017-11-19T10:27:01.129Z,2168
2017-11-19T10:28:10.108Z,2236
2017-11-19T10:29:19.221Z,2204
2017-11-19T10:30:28.054Z,2176
2017-11-19T10:31:36.959Z,2272
2017-11-19T10:32:45.788Z,2704
2017-11-19T10:33:54.868Z,3048
2017-11-19T10:35:03.697Z,2856
2017-11-19T10:36:12.526Z,3404
2017-11-19T10:37:21.355Z,4324
2017-11-19T10:38:30.190Z,4248
2017-11-19T10:39:39.018Z,4608
2017-11-19T10:40:47.846Z,5108
2017-11-19T10:41:56.674Z,5260
2017-11-19T10:43:05.521Z,5284
2017-11-19T10:44:14.350Z,5924
2017-11-19T10:45:23.211Z,6108
2017-11-19T10:46:32.010Z,5272
2017-11-19T10:47:41.132Z,4712
2017-11-19T10:48:49.960Z,4316
2017-11-19T10:49:59.069Z,4088
2017-11-19T10:51:07.898Z,3592
2017-11-19T10:52:16.727Z,3184
2017-11-19T10:53:25.564Z,2872
2017-11-19T10:54:34.389Z,2800
2017-11-19T10:55:43.219Z,2808
2017-11-19T10:56:52.331Z,2520
2017-11-19T10:58:01.163Z,1812
2017-11-19T10:59:10.286Z,1148
2017-11-19T11:00:19.116Z,736
2017-11-19T11:01:27.947Z,552
2017-11-19T11:02:36.839Z,428
2017-11-19T11:03:45.675Z,308
2017-11-19T11:04:54.810Z,244
2017-11-19T11:06:03.641Z,156
2017-11-19T11:07:12.470Z,228
2017-11-19T11:08:21.450Z,204
2017-11-19T11:09:30.513Z,236
2017-11-19T11:10:39.392Z,196
2017-11-19T11:11:48.218Z,228
2017-11-19T11:12:57.046Z,224
2017-11-19T11:14:06.157Z,272
2017-11-19T11:15:14.986Z,340
2017-11-19T11:16:24.155Z,592
2017-11-19T11:17:33.270Z,580
2017-11-19T11:18:42.097Z,596
2017-11-19T11:19:50.924Z,640
2017-11-19T11:20:59.751Z,560
2017-11-19T11:22:08.927Z,696
2017-11-19T11:23:17.754Z,1004
2017-11-19T11:24:26.870Z,1120
2017-11-19T11:25:35.697Z,1000
2017-11-19T11:26:44.525Z,1068
2017-11-19T11:27:53.943Z,1208
2017-11-19T11:29:02.770Z,1612
2017-11-19T11:30:11.602Z,2236
2017-11-19T11:31:20.423Z,2828
2017-11-19T11:32:29.255Z,3316
2017-11-19T11:33:38.074Z,2316
2017-11-19T11:34:46.905Z,1384
2017-11-19T11:35:55.736Z,1092
2017-11-19T11:37:04.850Z,708
2017-11-19T11:38:13.669Z,448
2017-11-19T11:39:22.497Z,328
2017-11-19T11:40:31.428Z,220
2017-11-19T11:41:40.265Z,180
2017-11-19T11:42:49.089Z,244
2017-11-19T11:43:57.915Z,248
2017-11-19T11:45:06.742Z,248
2017-11-19T11:46:15.620Z,296
2017-11-19T11:47:24.658Z,380
2017-11-19T11:48:33.816Z,492
2017-11-19T11:49:42.643Z,580
2017-11-19T11:50:51.469Z,748
2017-11-19T11:52:00.297Z,992
2017-11-19T11:53:09.132Z,1460
2017-11-19T11:54:17.972Z,2000
2017-11-19T11:55:26.795Z,2580
2017-11-19T11:56:35.623Z,2392
2017-11-19T11:57:44.462Z,1968
2017-11-19T11:58:53.578Z,1644
2017-11-19T12:00:02.407Z,1856
2017-11-19T12:01:11.234Z,2048
2017-11-19T12:02:20.064Z,2368
2017-11-19T12:03:28.891Z,2900
2017-11-19T12:04:37.717Z,2320
2017-11-19T12:05:46.548Z,2032
2017-11-19T12:06:55.373Z,2020
2017-11-19T12:08:04.201Z,1912
2017-11-19T12:09:13.314Z,1824
2017-11-19T12:10:22.445Z,1916
2017-11-19T12:11:31.275Z,2012
2017-11-19T12:12:40.391Z,2064
2017-11-19T12:13:49.240Z,2104
2017-11-19T12:14:58.341Z,2208
2017-11-19T12:16:07.523Z,2312
2017-11-19T12:17:16.351Z,2428
2017-11-19T12:18:25.176Z,2700
2017-11-19T12:19:34.004Z,3272
2017-11-19T12:20:42.831Z,4516
2017-11-19T12:21:51.710Z,5880
2017-11-19T12:23:00.549Z,7248
2017-11-19T12:24:09.382Z,7960
2017-11-19T12:25:18.213Z,9200
2017-11-19T12:26:27.042Z,10352
2017-11-19T12:27:35.879Z,5120
2017-11-19T12:28:44.701Z,3896
2017-11-19T12:29:53.530Z,2920
2017-11-19T12:31:02.361Z,2712
2017-11-19T12:32:11.189Z,2956
2017-11-19T12:33:20.329Z,2296
2017-11-19T12:34:29.434Z,1996
2017-11-19T12:35:38.266Z,2112
2017-11-19T12:36:47.093Z,3328
2017-11-19T12:37:55.929Z,6132
2017-11-19T12:39:04.757Z,4008
2017-11-19T12:40:13.619Z,2232
2017-11-19T12:41:22.690Z,924
2017-11-19T12:42:31.533Z,752
2017-11-19T12:43:40.378Z,664
2017-11-19T12:44:49.624Z,580
2017-11-19T12:45:58.454Z,484
2017-11-19T12:47:07.561Z,400
2017-11-19T12:48:16.393Z,400
2017-11-19T12:49:25.507Z,212
2017-11-19T12:50:34.436Z,192
2017-11-19T12:51:43.268Z,180
2017-11-19T12:52:52.096Z,220
2017-11-19T12:54:00.924Z,256
2017-11-19T12:55:09.752Z,344
2017-11-19T12:56:18.683Z,740
2017-11-19T12:57:27.795Z,1648
2017-11-19T12:58:36.657Z,2388
2017-11-19T12:59:45.445Z,2500
2017-11-19T13:00:54.273Z,2316
2017-11-19T13:02:03.252Z,1988
2017-11-19T13:03:12.361Z,1604
2017-11-19T13:04:21.187Z,1520
2017-11-19T13:05:30.026Z,2108
2017-11-19T13:06:38.842Z,1392
2017-11-19T13:07:47.782Z,2564
2017-11-19T13:08:56.594Z,2632
2017-11-19T13:10:05.428Z,1536
2017-11-19T13:11:14.250Z,1084
2017-11-19T13:12:23.076Z,976
2017-11-19T13:13:31.962Z,1136
2017-11-19T13:14:40.789Z,1216
2017-11-19T13:15:49.619Z,1884
2017-11-19T13:16:58.443Z,1988
2017-11-19T13:18:07.269Z,2512
2017-11-19T13:19:16.245Z,3672
2017-11-19T13:20:25.074Z,5592
2017-11-19T13:21:33.903Z,4928
2017-11-19T13:22:42.727Z,4488
2017-11-19T13:23:51.555Z,6184
2017-11-19T13:25:00.480Z,6044
2017-11-19T13:26:09.306Z,5264
2017-11-19T13:27:18.136Z,3400
2017-11-19T13:28:26.962Z,2288
2017-11-19T13:29:35.790Z,1312
2017-11-19T13:30:44.716Z,964
2017-11-19T13:31:53.545Z,928
2017-11-19T13:33:02.946Z,868
2017-11-19T13:34:11.784Z,1224
2017-11-19T13:35:20.623Z,1596
2017-11-19T13:36:29.556Z,1528
2017-11-19T13:37:38.664Z,2192
2017-11-19T13:38:47.493Z,3648
2017-11-19T13:39:56.599Z,4492
2017-11-19T13:41:05.428Z,6028
2017-11-19T13:42:14.556Z,5552
2017-11-19T13:43:23.401Z,2424
2017-11-19T13:44:32.511Z,1544
2017-11-19T13:45:41.342Z,680
2017-11-19T13:46:50.170Z,608
2017-11-19T13:47:59.331Z,520
2017-11-19T13:49:08.157Z,488
2017-11-19T13:50:16.986Z,656
2017-11-19T13:51:25.813Z,748
2017-11-19T13:52:34.644Z,572
2017-11-19T13:53:43.769Z,488
2017-11-19T13:54:52.910Z,584
2017-11-19T13:56:01.741Z,404
2017-11-19T13:57:10.565Z,596
2017-11-19T13:58:19.393Z,856
2017-11-19T13:59:28.327Z,1160
2017-11-19T14:00:37.433Z,1808
2017-11-19T14:01:46.261Z,3044
2017-11-19T14:02:55.092Z,1564
2017-11-19T14:04:03.917Z,804
2017-11-19T14:05:13.175Z,492
2017-11-19T14:06:22.010Z,312
2017-11-19T14:07:30.828Z,260
2017-11-19T14:08:39.663Z,352
2017-11-19T14:09:48.482Z,460
2017-11-19T14:10:57.312Z,448
2017-11-19T14:12:06.140Z,400
2017-11-19T14:13:14.966Z,468
2017-11-19T14:14:23.792Z,584
2017-11-19T14:15:32.619Z,708
2017-11-19T14:16:41.749Z,480
2017-11-19T14:17:50.576Z,424
2017-11-19T14:18:59.403Z,408
2017-11-19T14:20:08.234Z,360
2017-11-19T14:21:17.060Z,384
2017-11-19T14:22:25.937Z,560
2017-11-19T14:23:34.764Z,608
2017-11-19T14:24:43.592Z,924
2017-11-19T14:25:52.419Z,888
2017-11-19T14:27:01.249Z,820
2017-11-19T14:28:10.412Z,704
2017-11-19T14:29:19.238Z,704
2017-11-19T14:30:28.062Z,712
2017-11-19T14:31:36.886Z,756
2017-11-19T14:32:45.712Z,700
2017-11-19T14:33:54.591Z,720
2017-11-19T14:35:03.421Z,744
2017-11-19T14:36:12.248Z,804
2017-11-19T14:37:21.075Z,852
2017-11-19T14:38:29.907Z,808
2017-11-19T14:39:38.783Z,692
2017-11-19T14:40:47.610Z,660
2017-11-19T14:41:56.439Z,536
2017-11-19T14:43:05.276Z,580
2017-11-19T14:44:14.111Z,560
2017-11-19T14:45:23.239Z,528
2017-11-19T14:46:32.067Z,480
2017-11-19T14:47:40.993Z,500
2017-11-19T14:48:49.831Z,572
2017-11-19T14:49:58.661Z,596
2017-11-19T14:51:07.498Z,612
2017-11-19T14:52:16.605Z,620
2017-11-19T14:53:25.433Z,608
2017-11-19T14:54:34.258Z,584
2017-11-19T14:55:43.088Z,576
2017-11-19T14:56:52.068Z,560
2017-11-19T14:58:00.896Z,544
2017-11-19T14:59:10.007Z,524
2017-11-19T15:00:19.209Z,504
2017-11-19T15:01:28.040Z,488
2017-11-19T15:02:37.168Z,476
2017-11-19T15:03:45.997Z,456
2017-11-19T15:04:54.832Z,408
2017-11-19T15:06:03.654Z,368
2017-11-19T15:07:12.785Z,340
2017-11-19T15:08:21.614Z,308
2017-11-19T15:09:30.443Z,284
2017-11-19T15:10:39.320Z,280
2017-11-19T15:11:48.149Z,280
2017-11-19T15:12:56.977Z,268
2017-11-19T15:14:05.807Z,248
2017-11-19T15:15:14.634Z,216
2017-11-19T15:16:23.474Z,196
2017-11-19T15:17:32.316Z,196
2017-11-19T15:18:41.435Z,192
2017-11-19T15:19:50.274Z,180
2017-11-19T15:20:59.097Z,164
2017-11-19T15:22:07.923Z,148
2017-11-19T15:23:16.757Z,152
2017-11-19T15:24:25.584Z,136
2017-11-19T15:25:34.412Z,92
2017-11-19T15:26:43.245Z,40
2017-11-19T15:27:52.068Z,28
2017-11-19T15:29:00.896Z,20
2017-11-19T15:30:09.727Z,44
2017-11-19T15:31:18.560Z,72
2017-11-19T15:32:27.393Z,68
2017-11-19T15:33:36.282Z,64
2017-11-19T15:34:45.103Z,52
2017-11-19T15:35:53.934Z,44
2017-11-19T15:37:02.763Z,44
2017-11-19T15:38:11.614Z,36
2017-11-19T15:39:20.964Z,32
2017-11-19T15:40:29.804Z,28
2017-11-19T15:41:38.627Z,24
2017-11-19T15:42:47.459Z,16
2017-11-19T15:43:56.288Z,12
2017-11-19T15:45:05.276Z,12
2017-11-19T15:46:14.109Z,8
2017-11-19T15:47:22.936Z,4
2017-11-19T15:48:31.765Z,4
2017-11-19T15:49:40.596Z,0
2017-11-19T15:50:49.812Z,4
2017-11-19T15:51:58.640Z,0
2017-11-19T15:53:07.465Z,0
2017-11-19T15:54:16.572Z,0
2017-11-19T15:55:25.398Z,0
2017-11-19T15:56:34.365Z,0
2017-11-19T15:57:43.153Z,0
2017-11-19T15:58:52.269Z,0
2017-11-19T16:00:01.097Z,0
2017-11-19T16:01:10.201Z,0
2017-11-19T16:02:19.079Z,0
2017-11-19T16:03:27.908Z,0
2017-11-19T16:04:36.735Z,0
2017-11-19T16:05:45.565Z,0
2017-11-19T16:06:54.391Z,0
2017-11-19T16:08:03.500Z,0
2017-11-19T16:09:12.325Z,0
2017-11-19T16:10:21.159Z,0